sensor_id;sensor_type;location;lat;lon;timestamp;temperature;humidity
4183;DHT22;2105;52.300;9.182;2023-04-08T00:01:49;6.80;1.00
4183;DHT22;2105;52.300;9.182;2023-04-08T00:04:16;6.80;1.00
4183;DHT22;2105;52.300;9.182;2023-04-08T00:06:43;6.70;1.00
4183;DHT22;2105;52.300;9.182;2023-04-08T00:09:09;6.70;59.40
4183;DHT22;2105;52.300;9.182;2023-04-08T00:11:36;6.70;99.90
4183;DHT22;2105;52.300;9.182;2023-04-08T00:14:04;6.80;99.90
4183;DHT22;2105;52.300;9.182;2023-04-08T00:16:31;6.80;18.50
4183;DHT22;2105;52.300;9.182;2023-04-08T00:18:58;6.80;64.70
4183;DHT22;2105;52.300;9.182;2023-04-08T00:21:25;6.80;99.90
4183;DHT22;2105;52.300;9.182;2023-04-08T00:23:52;6.80;99.90
4183;DHT22;2105;52.300;9.182;2023-04-08T00:26:19;6.80;99.90
4183;DHT22;2105;52.300;9.182;2023-04-08T00:28:45;6.80;99.90
4183;DHT22;2105;52.300;9.182;2023-04-08T00:31:13;6.80;99.90
4183;DHT22;2105;52.300;9.182;2023-04-08T00:33:40;6.80;99.90
4183;DHT22;2105;52.300;9.182;2023-04-08T00:36:07;6.80;1.00
4183;DHT22;2105;52.300;9.182;2023-04-08T00:38:34;6.80;99.90
4183;DHT22;2105;52.300;9.182;2023-04-08T00:41:00;6.80;99.90
4183;DHT22;2105;52.300;9.182;2023-04-08T00:43:27;6.70;1.00
4183;DHT22;2105;52.300;9.182;2023-04-08T00:45:54;6.70;99.90
4183;DHT22;2105;52.300;9.182;2023-04-08T00:48:22;6.80;1.00
4183;DHT22;2105;52.300;9.182;2023-04-08T00:50:49;6.80;1.00
4183;DHT22;2105;52.300;9.182;2023-04-08T00:53:17;6.80;1.00
4183;DHT22;2105;52.300;9.182;2023-04-08T00:55:44;6.80;1.00
4183;DHT22;2105;52.300;9.182;2023-04-08T00:58:11;6.80;1.00
4183;DHT22;2105;52.300;9.182;2023-04-08T01:00:43;6.80;1.00
4183;DHT22;2105;52.300;9.182;2023-04-08T01:03:15;6.80;1.00
4183;DHT22;2105;52.300;9.182;2023-04-08T01:05:52;6.90;1.00
4183;DHT22;2105;52.300;9.182;2023-04-08T01:08:24;6.80;99.90
4183;DHT22;2105;52.300;9.182;2023-04-08T01:10:53;6.80;99.90
4183;DHT22;2105;52.300;9.182;2023-04-08T01:13:25;6.80;1.00
4183;DHT22;2105;52.300;9.182;2023-04-08T01:15:54;6.80;99.90
4183;DHT22;2105;52.300;9.182;2023-04-08T01:18:21;6.80;1.00
4183;DHT22;2105;52.300;9.182;2023-04-08T01:20:51;6.80;1.00
4183;DHT22;2105;52.300;9.182;2023-04-08T01:23:24;6.80;99.90
4183;DHT22;2105;52.300;9.182;2023-04-08T01:25:58;6.80;99.90
4183;DHT22;2105;52.300;9.182;2023-04-08T01:28:28;6.80;99.90
4183;DHT22;2105;52.300;9.182;2023-04-08T01:30:57;6.70;99.90
4183;DHT22;2105;52.300;9.182;2023-04-08T01:33:26;6.60;1.00
4183;DHT22;2105;52.300;9.182;2023-04-08T01:35:54;6.70;26.90
4183;DHT22;2105;52.300;9.182;2023-04-08T01:38:23;6.60;99.90
4183;DHT22;2105;52.300;9.182;2023-04-08T01:40:51;6.60;1.00
4183;DHT22;2105;52.300;9.182;2023-04-08T01:43:20;6.70;74.30
4183;DHT22;2105;52.300;9.182;2023-04-08T01:45:47;6.70;1.00
4183;DHT22;2105;52.300;9.182;2023-04-08T01:48:18;6.70;99.90
4183;DHT22;2105;52.300;9.182;2023-04-08T01:50:46;6.60;99.90
4183;DHT22;2105;52.300;9.182;2023-04-08T01:53:13;6.60;1.00
4183;DHT22;2105;52.300;9.182;2023-04-08T01:55:40;6.60;1.00
4183;DHT22;2105;52.300;9.182;2023-04-08T01:58:10;6.60;99.90
4183;DHT22;2105;52.300;9.182;2023-04-08T02:00:39;6.50;99.90
4183;DHT22;2105;52.300;9.182;2023-04-08T02:03:10;6.50;99.90
4183;DHT22;2105;52.300;9.182;2023-04-08T02:05:38;6.50;99.90
4183;DHT22;2105;52.300;9.182;2023-04-08T02:08:05;6.50;99.90
4183;DHT22;2105;52.300;9.182;2023-04-08T02:10:31;6.40;99.90
4183;DHT22;2105;52.300;9.182;2023-04-08T02:12:58;6.30;1.00
4183;DHT22;2105;52.300;9.182;2023-04-08T02:15:28;6.30;1.00
4183;DHT22;2105;52.300;9.182;2023-04-08T02:18:06;6.30;1.00
4183;DHT22;2105;52.300;9.182;2023-04-08T02:20:37;6.20;99.90
4183;DHT22;2105;52.300;9.182;2023-04-08T02:23:08;6.30;99.90
4183;DHT22;2105;52.300;9.182;2023-04-08T02:25:37;6.20;99.90
4183;DHT22;2105;52.300;9.182;2023-04-08T02:28:09;6.30;1.00
4183;DHT22;2105;52.300;9.182;2023-04-08T02:30:36;6.20;1.00
4183;DHT22;2105;52.300;9.182;2023-04-08T02:33:08;6.30;1.00
4183;DHT22;2105;52.300;9.182;2023-04-08T02:35:35;6.30;1.00
4183;DHT22;2105;52.300;9.182;2023-04-08T02:38:04;6.40;1.00
4183;DHT22;2105;52.300;9.182;2023-04-08T02:40:32;6.40;1.00
4183;DHT22;2105;52.300;9.182;2023-04-08T02:42:59;6.50;1.00
4183;DHT22;2105;52.300;9.182;2023-04-08T02:45:29;6.50;1.00
4183;DHT22;2105;52.300;9.182;2023-04-08T02:47:56;6.50;1.00
4183;DHT22;2105;52.300;9.182;2023-04-08T02:50:24;6.50;99.90
4183;DHT22;2105;52.300;9.182;2023-04-08T02:52:51;6.50;99.90
4183;DHT22;2105;52.300;9.182;2023-04-08T02:55:17;6.50;19.30
4183;DHT22;2105;52.300;9.182;2023-04-08T02:57:46;6.40;1.00
4183;DHT22;2105;52.300;9.182;2023-04-08T03:00:14;6.40;1.00
4183;DHT22;2105;52.300;9.182;2023-04-08T03:02:41;6.30;1.00
4183;DHT22;2105;52.300;9.182;2023-04-08T03:05:08;6.30;1.00
4183;DHT22;2105;52.300;9.182;2023-04-08T03:07:36;6.40;99.90
4183;DHT22;2105;52.300;9.182;2023-04-08T03:10:04;6.40;99.90
4183;DHT22;2105;52.300;9.182;2023-04-08T03:12:31;6.40;99.90
4183;DHT22;2105;52.300;9.182;2023-04-08T03:14:57;6.50;99.90
4183;DHT22;2105;52.300;9.182;2023-04-08T03:17:24;6.40;99.90
4183;DHT22;2105;52.300;9.182;2023-04-08T03:19:51;6.40;99.90
4183;DHT22;2105;52.300;9.182;2023-04-08T03:22:18;6.50;99.90
4183;DHT22;2105;52.300;9.182;2023-04-08T03:24:46;6.50;37.40
4183;DHT22;2105;52.300;9.182;2023-04-08T03:27:12;6.50;1.00
4183;DHT22;2105;52.300;9.182;2023-04-08T03:29:39;6.50;1.00
4183;DHT22;2105;52.300;9.182;2023-04-08T03:32:06;6.50;99.90
4183;DHT22;2105;52.300;9.182;2023-04-08T03:34:33;6.50;99.90
4183;DHT22;2105;52.300;9.182;2023-04-08T03:36:59;6.60;99.90
4183;DHT22;2105;52.300;9.182;2023-04-08T03:39:26;6.50;1.00
4183;DHT22;2105;52.300;9.182;2023-04-08T03:41:54;6.50;99.90
4183;DHT22;2105;52.300;9.182;2023-04-08T03:44:21;6.50;99.90
4183;DHT22;2105;52.300;9.182;2023-04-08T03:46:48;6.50;99.90
4183;DHT22;2105;52.300;9.182;2023-04-08T03:49:14;6.60;1.00
4183;DHT22;2105;52.300;9.182;2023-04-08T03:51:41;6.60;99.90
4183;DHT22;2105;52.300;9.182;2023-04-08T03:54:08;6.60;99.90
4183;DHT22;2105;52.300;9.182;2023-04-08T03:56:34;6.60;1.00
4183;DHT22;2105;52.300;9.182;2023-04-08T03:59:02;6.60;1.00
4183;DHT22;2105;52.300;9.182;2023-04-08T04:01:29;6.50;1.00
4183;DHT22;2105;52.300;9.182;2023-04-08T04:03:56;6.60;1.00
4183;DHT22;2105;52.300;9.182;2023-04-08T04:06:23;6.60;1.00
4183;DHT22;2105;52.300;9.182;2023-04-08T04:08:52;6.60;99.90
4183;DHT22;2105;52.300;9.182;2023-04-08T04:11:18;6.60;1.00
4183;DHT22;2105;52.300;9.182;2023-04-08T04:13:45;6.70;99.90
4183;DHT22;2105;52.300;9.182;2023-04-08T04:16:13;6.60;99.90
4183;DHT22;2105;52.300;9.182;2023-04-08T04:18:40;6.60;1.00
4183;DHT22;2105;52.300;9.182;2023-04-08T04:21:07;6.60;1.00
4183;DHT22;2105;52.300;9.182;2023-04-08T04:23:33;6.60;1.00
4183;DHT22;2105;52.300;9.182;2023-04-08T04:26:00;6.60;99.90
4183;DHT22;2105;52.300;9.182;2023-04-08T04:28:27;6.60;1.00
4183;DHT22;2105;52.300;9.182;2023-04-08T04:30:53;6.60;1.00
4183;DHT22;2105;52.300;9.182;2023-04-08T04:33:21;6.50;99.90
4183;DHT22;2105;52.300;9.182;2023-04-08T04:35:48;6.40;99.90
4183;DHT22;2105;52.300;9.182;2023-04-08T04:38:15;6.40;99.90
4183;DHT22;2105;52.300;9.182;2023-04-08T04:40:41;6.30;1.00
4183;DHT22;2105;52.300;9.182;2023-04-08T04:43:09;6.30;99.90
4183;DHT22;2105;52.300;9.182;2023-04-08T04:45:35;6.30;1.00
4183;DHT22;2105;52.300;9.182;2023-04-08T04:48:02;6.40;99.90
4183;DHT22;2105;52.300;9.182;2023-04-08T04:50:30;6.50;1.00
4183;DHT22;2105;52.300;9.182;2023-04-08T04:52:56;6.50;1.00
4183;DHT22;2105;52.300;9.182;2023-04-08T04:55:23;6.50;99.90
4183;DHT22;2105;52.300;9.182;2023-04-08T04:57:50;6.50;1.00
4183;DHT22;2105;52.300;9.182;2023-04-08T05:00:16;6.50;1.00
4183;DHT22;2105;52.300;9.182;2023-04-08T05:02:43;6.40;1.00
4183;DHT22;2105;52.300;9.182;2023-04-08T05:05:10;6.50;99.90
4183;DHT22;2105;52.300;9.182;2023-04-08T05:07:38;6.40;1.00
4183;DHT22;2105;52.300;9.182;2023-04-08T05:10:05;6.40;1.00
4183;DHT22;2105;52.300;9.182;2023-04-08T05:12:32;6.40;99.90
4183;DHT22;2105;52.300;9.182;2023-04-08T05:14:58;6.40;99.90
4183;DHT22;2105;52.300;9.182;2023-04-08T05:17:26;6.40;1.00
4183;DHT22;2105;52.300;9.182;2023-04-08T05:19:53;6.50;1.00
4183;DHT22;2105;52.300;9.182;2023-04-08T05:22:19;6.40;1.00
4183;DHT22;2105;52.300;9.182;2023-04-08T05:24:47;6.50;99.90
4183;DHT22;2105;52.300;9.182;2023-04-08T05:27:14;6.50;99.90
4183;DHT22;2105;52.300;9.182;2023-04-08T05:29:41;6.60;99.90
4183;DHT22;2105;52.300;9.182;2023-04-08T05:32:07;6.40;99.90
4183;DHT22;2105;52.300;9.182;2023-04-08T05:34:34;6.40;99.90
4183;DHT22;2105;52.300;9.182;2023-04-08T05:37:01;6.40;1.00
4183;DHT22;2105;52.300;9.182;2023-04-08T05:39:27;6.30;1.00
4183;DHT22;2105;52.300;9.182;2023-04-08T05:41:55;6.40;1.00
4183;DHT22;2105;52.300;9.182;2023-04-08T05:44:22;6.40;1.00
4183;DHT22;2105;52.300;9.182;2023-04-08T05:46:49;6.30;99.90
4183;DHT22;2105;52.300;9.182;2023-04-08T05:49:15;6.30;99.90
4183;DHT22;2105;52.300;9.182;2023-04-08T05:51:42;6.20;99.90
4183;DHT22;2105;52.300;9.182;2023-04-08T05:54:09;6.20;1.00
4183;DHT22;2105;52.300;9.182;2023-04-08T05:56:35;6.30;40.10
4183;DHT22;2105;52.300;9.182;2023-04-08T05:59:03;6.30;1.00
4183;DHT22;2105;52.300;9.182;2023-04-08T06:01:30;6.40;1.00
4183;DHT22;2105;52.300;9.182;2023-04-08T06:03:57;6.40;82.40
4183;DHT22;2105;52.300;9.182;2023-04-08T06:06:23;6.50;99.90
4183;DHT22;2105;52.300;9.182;2023-04-08T06:08:50;6.60;99.90
4183;DHT22;2105;52.300;9.182;2023-04-08T06:11:17;6.60;99.90
4183;DHT22;2105;52.300;9.182;2023-04-08T06:13:43;6.60;99.90
4183;DHT22;2105;52.300;9.182;2023-04-08T06:16:13;6.60;44.00
4183;DHT22;2105;52.300;9.182;2023-04-08T06:18:40;6.50;40.90
4183;DHT22;2105;52.300;9.182;2023-04-08T06:21:06;6.60;99.90
4183;DHT22;2105;52.300;9.182;2023-04-08T06:23:33;6.50;99.90
4183;DHT22;2105;52.300;9.182;2023-04-08T06:26:00;6.50;99.90
4183;DHT22;2105;52.300;9.182;2023-04-08T06:28:28;6.60;99.90
4183;DHT22;2105;52.300;9.182;2023-04-08T06:30:55;6.60;99.90
4183;DHT22;2105;52.300;9.182;2023-04-08T06:33:23;6.60;1.00
4183;DHT22;2105;52.300;9.182;2023-04-08T06:35:49;6.60;1.00
4183;DHT22;2105;52.300;9.182;2023-04-08T06:38:16;6.60;1.00
4183;DHT22;2105;52.300;9.182;2023-04-08T06:40:43;6.60;1.00
4183;DHT22;2105;52.300;9.182;2023-04-08T06:43:09;6.70;1.00
4183;DHT22;2105;52.300;9.182;2023-04-08T06:45:36;6.70;1.00
4183;DHT22;2105;52.300;9.182;2023-04-08T06:48:03;6.70;1.00
4183;DHT22;2105;52.300;9.182;2023-04-08T06:50:32;6.70;1.00
4183;DHT22;2105;52.300;9.182;2023-04-08T06:52:59;6.70;1.00
4183;DHT22;2105;52.300;9.182;2023-04-08T06:55:25;6.70;52.90
4183;DHT22;2105;52.300;9.182;2023-04-08T06:57:52;6.70;99.90
4183;DHT22;2105;52.300;9.182;2023-04-08T07:00:19;6.70;99.90
4183;DHT22;2105;52.300;9.182;2023-04-08T07:02:45;6.80;99.90
4183;DHT22;2105;52.300;9.182;2023-04-08T07:05:12;6.70;99.90
4183;DHT22;2105;52.300;9.182;2023-04-08T07:07:40;6.70;99.90
4183;DHT22;2105;52.300;9.182;2023-04-08T07:10:07;6.70;99.90
4183;DHT22;2105;52.300;9.182;2023-04-08T07:12:34;6.80;99.90
4183;DHT22;2105;52.300;9.182;2023-04-08T07:15:00;6.80;99.90
4183;DHT22;2105;52.300;9.182;2023-04-08T07:17:28;6.70;99.90
4183;DHT22;2105;52.300;9.182;2023-04-08T07:19:54;6.80;99.90
4183;DHT22;2105;52.300;9.182;2023-04-08T07:22:22;6.80;99.90
4183;DHT22;2105;52.300;9.182;2023-04-08T07:24:50;6.90;99.90
4183;DHT22;2105;52.300;9.182;2023-04-08T07:27:16;6.80;99.90
4183;DHT22;2105;52.300;9.182;2023-04-08T07:29:43;6.70;99.90
4183;DHT22;2105;52.300;9.182;2023-04-08T07:32:10;6.80;99.90
4183;DHT22;2105;52.300;9.182;2023-04-08T07:34:36;6.80;99.90
4183;DHT22;2105;52.300;9.182;2023-04-08T07:37:03;6.80;99.90
4183;DHT22;2105;52.300;9.182;2023-04-08T07:39:30;6.80;99.90
4183;DHT22;2105;52.300;9.182;2023-04-08T07:41:58;6.80;99.90
4183;DHT22;2105;52.300;9.182;2023-04-08T07:44:25;6.80;99.90
4183;DHT22;2105;52.300;9.182;2023-04-08T07:46:51;6.80;99.90
4183;DHT22;2105;52.300;9.182;2023-04-08T07:49:18;6.90;99.90
4183;DHT22;2105;52.300;9.182;2023-04-08T07:51:45;7.00;99.90
4183;DHT22;2105;52.300;9.182;2023-04-08T07:54:11;7.00;55.40
4183;DHT22;2105;52.300;9.182;2023-04-08T07:56:41;7.10;1.00
4183;DHT22;2105;52.300;9.182;2023-04-08T07:59:10;7.10;1.00
4183;DHT22;2105;52.300;9.182;2023-04-08T08:01:37;7.10;1.00
4183;DHT22;2105;52.300;9.182;2023-04-08T08:04:04;7.10;1.00
4183;DHT22;2105;52.300;9.182;2023-04-08T08:06:30;7.20;1.00
4183;DHT22;2105;52.300;9.182;2023-04-08T08:08:57;7.10;1.00
4183;DHT22;2105;52.300;9.182;2023-04-08T08:11:24;7.10;1.00
4183;DHT22;2105;52.300;9.182;2023-04-08T08:13:52;7.10;1.00
4183;DHT22;2105;52.300;9.182;2023-04-08T08:16:20;7.20;1.00
4183;DHT22;2105;52.300;9.182;2023-04-08T08:18:47;7.10;1.00
4183;DHT22;2105;52.300;9.182;2023-04-08T08:21:13;7.20;1.00
4183;DHT22;2105;52.300;9.182;2023-04-08T08:23:40;7.30;1.00
4183;DHT22;2105;52.300;9.182;2023-04-08T08:26:08;7.30;1.00
4183;DHT22;2105;52.300;9.182;2023-04-08T08:28:35;7.30;99.90
4183;DHT22;2105;52.300;9.182;2023-04-08T08:31:02;7.30;99.90
4183;DHT22;2105;52.300;9.182;2023-04-08T08:33:31;7.40;99.90
4183;DHT22;2105;52.300;9.182;2023-04-08T08:35:58;7.50;99.90
4183;DHT22;2105;52.300;9.182;2023-04-08T08:38:25;7.50;56.10
4183;DHT22;2105;52.300;9.182;2023-04-08T08:40:53;7.50;1.00
4183;DHT22;2105;52.300;9.182;2023-04-08T08:43:20;7.50;1.00
4183;DHT22;2105;52.300;9.182;2023-04-08T08:45:47;7.50;1.00
4183;DHT22;2105;52.300;9.182;2023-04-08T08:48:13;7.50;99.90
4183;DHT22;2105;52.300;9.182;2023-04-08T08:50:42;7.50;1.00
4183;DHT22;2105;52.300;9.182;2023-04-08T08:53:08;7.60;1.00
4183;DHT22;2105;52.300;9.182;2023-04-08T08:55:35;7.60;99.90
4183;DHT22;2105;52.300;9.182;2023-04-08T08:58:05;7.70;99.90
4183;DHT22;2105;52.300;9.182;2023-04-08T09:00:33;7.80;99.90
4183;DHT22;2105;52.300;9.182;2023-04-08T09:03:14;7.90;16.30
4183;DHT22;2105;52.300;9.182;2023-04-08T09:05:50;8.00;99.90
4183;DHT22;2105;52.300;9.182;2023-04-08T09:08:28;7.90;99.90
4183;DHT22;2105;52.300;9.182;2023-04-08T09:10:55;7.80;1.00
4183;DHT22;2105;52.300;9.182;2023-04-08T09:13:35;7.80;1.00
4183;DHT22;2105;52.300;9.182;2023-04-08T09:16:03;7.80;25.00
4183;DHT22;2105;52.300;9.182;2023-04-08T09:18:30;7.80;81.60
4183;DHT22;2105;52.300;9.182;2023-04-08T09:21:00;7.80;1.00
4183;DHT22;2105;52.300;9.182;2023-04-08T09:23:37;7.90;1.00
4183;DHT22;2105;52.300;9.182;2023-04-08T09:26:07;8.00;1.00
4183;DHT22;2105;52.300;9.182;2023-04-08T09:28:34;8.00;11.90
4183;DHT22;2105;52.300;9.182;2023-04-08T09:31:00;8.00;1.00
4183;DHT22;2105;52.300;9.182;2023-04-08T09:33:43;8.00;1.00
4183;DHT22;2105;52.300;9.182;2023-04-08T09:36:11;8.10;99.90
4183;DHT22;2105;52.300;9.182;2023-04-08T09:38:38;8.20;99.90
4183;DHT22;2105;52.300;9.182;2023-04-08T09:41:06;8.20;90.70
4183;DHT22;2105;52.300;9.182;2023-04-08T09:43:36;8.20;1.00
4183;DHT22;2105;52.300;9.182;2023-04-08T09:46:10;8.20;1.00
4183;DHT22;2105;52.300;9.182;2023-04-08T09:48:39;8.20;1.00
4183;DHT22;2105;52.300;9.182;2023-04-08T09:51:13;8.20;1.00
4183;DHT22;2105;52.300;9.182;2023-04-08T09:53:46;8.20;1.00
4183;DHT22;2105;52.300;9.182;2023-04-08T09:56:14;8.20;56.00
4183;DHT22;2105;52.300;9.182;2023-04-08T09:58:45;8.20;38.00
4183;DHT22;2105;52.300;9.182;2023-04-08T10:01:14;8.20;1.00
4183;DHT22;2105;52.300;9.182;2023-04-08T10:03:47;8.20;1.00
4183;DHT22;2105;52.300;9.182;2023-04-08T10:06:16;8.20;99.90
4183;DHT22;2105;52.300;9.182;2023-04-08T10:08:44;8.30;99.90
4183;DHT22;2105;52.300;9.182;2023-04-08T10:11:11;8.30;1.00
4183;DHT22;2105;52.300;9.182;2023-04-08T10:13:39;8.50;1.00
4183;DHT22;2105;52.300;9.182;2023-04-08T10:16:20;8.50;1.00
4183;DHT22;2105;52.300;9.182;2023-04-08T10:18:48;8.50;99.90
4183;DHT22;2105;52.300;9.182;2023-04-08T10:21:38;8.50;1.00
4183;DHT22;2105;52.300;9.182;2023-04-08T10:24:08;8.60;99.90
4183;DHT22;2105;52.300;9.182;2023-04-08T10:26:37;8.50;99.90
4183;DHT22;2105;52.300;9.182;2023-04-08T10:32:07;8.60;99.90
4183;DHT22;2105;52.300;9.182;2023-04-08T10:34:33;8.60;99.90
4183;DHT22;2105;52.300;9.182;2023-04-08T10:37:01;8.70;1.00
4183;DHT22;2105;52.300;9.182;2023-04-08T10:39:29;8.80;1.00
4183;DHT22;2105;52.300;9.182;2023-04-08T10:41:56;8.80;99.90
4183;DHT22;2105;52.300;9.182;2023-04-08T10:44:24;8.80;99.90
4183;DHT22;2105;52.300;9.182;2023-04-08T10:46:52;8.90;99.90
4183;DHT22;2105;52.300;9.182;2023-04-08T10:49:19;8.90;99.90
4183;DHT22;2105;52.300;9.182;2023-04-08T10:51:46;9.00;99.90
4183;DHT22;2105;52.300;9.182;2023-04-08T10:54:15;9.00;1.00
4183;DHT22;2105;52.300;9.182;2023-04-08T10:56:43;9.00;1.00
4183;DHT22;2105;52.300;9.182;2023-04-08T10:59:12;9.10;99.90
4183;DHT22;2105;52.300;9.182;2023-04-08T11:01:40;9.20;99.90
4183;DHT22;2105;52.300;9.182;2023-04-08T11:04:16;9.20;83.80
4183;DHT22;2105;52.300;9.182;2023-04-08T11:06:45;9.10;1.00
4183;DHT22;2105;52.300;9.182;2023-04-08T11:09:14;9.10;1.00
4183;DHT22;2105;52.300;9.182;2023-04-08T11:11:42;9.10;1.00
4183;DHT22;2105;52.300;9.182;2023-04-08T11:14:09;9.10;1.00
4183;DHT22;2105;52.300;9.182;2023-04-08T11:16:36;9.10;1.00
4183;DHT22;2105;52.300;9.182;2023-04-08T11:19:04;9.30;99.90
4183;DHT22;2105;52.300;9.182;2023-04-08T11:21:34;9.40;1.00
4183;DHT22;2105;52.300;9.182;2023-04-08T11:24:05;9.40;1.00
4183;DHT22;2105;52.300;9.182;2023-04-08T11:26:33;9.30;99.90
4183;DHT22;2105;52.300;9.182;2023-04-08T11:29:01;9.10;99.90
4183;DHT22;2105;52.300;9.182;2023-04-08T11:31:28;9.10;1.00
4183;DHT22;2105;52.300;9.182;2023-04-08T11:33:56;9.10;1.00
4183;DHT22;2105;52.300;9.182;2023-04-08T11:36:23;9.20;1.00
4183;DHT22;2105;52.300;9.182;2023-04-08T11:38:52;9.30;99.90
4183;DHT22;2105;52.300;9.182;2023-04-08T11:41:19;9.30;86.40
4183;DHT22;2105;52.300;9.182;2023-04-08T11:43:55;9.30;99.90
4183;DHT22;2105;52.300;9.182;2023-04-08T11:46:22;9.40;1.00
4183;DHT22;2105;52.300;9.182;2023-04-08T11:49:07;9.40;1.00
4183;DHT22;2105;52.300;9.182;2023-04-08T11:51:36;9.40;96.10
4183;DHT22;2105;52.300;9.182;2023-04-08T11:54:25;9.30;1.00
4183;DHT22;2105;52.300;9.182;2023-04-08T11:56:53;9.30;99.90
4183;DHT22;2105;52.300;9.182;2023-04-08T11:59:21;9.40;99.90
4183;DHT22;2105;52.300;9.182;2023-04-08T12:01:48;9.40;1.00
4183;DHT22;2105;52.300;9.182;2023-04-08T12:04:15;9.50;1.00
4183;DHT22;2105;52.300;9.182;2023-04-08T12:06:41;9.50;1.00
4183;DHT22;2105;52.300;9.182;2023-04-08T12:09:11;9.50;99.90
4183;DHT22;2105;52.300;9.182;2023-04-08T12:11:38;9.50;99.90
4183;DHT22;2105;52.300;9.182;2023-04-08T12:14:04;9.40;1.00
4183;DHT22;2105;52.300;9.182;2023-04-08T12:16:32;9.40;1.00
4183;DHT22;2105;52.300;9.182;2023-04-08T12:18:59;9.40;1.00
4183;DHT22;2105;52.300;9.182;2023-04-08T12:21:25;9.40;84.90
4183;DHT22;2105;52.300;9.182;2023-04-08T12:23:53;9.30;99.90
4183;DHT22;2105;52.300;9.182;2023-04-08T12:26:19;9.30;1.00
4183;DHT22;2105;52.300;9.182;2023-04-08T12:28:46;9.30;1.00
4183;DHT22;2105;52.300;9.182;2023-04-08T12:31:12;9.30;1.00
4183;DHT22;2105;52.300;9.182;2023-04-08T12:33:41;9.40;1.00
4183;DHT22;2105;52.300;9.182;2023-04-08T12:36:07;9.40;99.90
4183;DHT22;2105;52.300;9.182;2023-04-08T12:38:34;9.40;1.00
4183;DHT22;2105;52.300;9.182;2023-04-08T12:41:01;9.30;1.00
4183;DHT22;2105;52.300;9.182;2023-04-08T12:43:28;9.20;99.90
4183;DHT22;2105;52.300;9.182;2023-04-08T12:45:57;9.20;1.00
4183;DHT22;2105;52.300;9.182;2023-04-08T12:48:23;9.20;40.00
4183;DHT22;2105;52.300;9.182;2023-04-08T12:50:53;9.10;99.90
4183;DHT22;2105;52.300;9.182;2023-04-08T12:53:20;9.10;99.90
4183;DHT22;2105;52.300;9.182;2023-04-08T12:55:47;9.10;1.00
4183;DHT22;2105;52.300;9.182;2023-04-08T12:58:14;9.20;99.90
4183;DHT22;2105;52.300;9.182;2023-04-08T13:00:42;9.20;28.80
4183;DHT22;2105;52.300;9.182;2023-04-08T13:03:11;9.30;1.00
4183;DHT22;2105;52.300;9.182;2023-04-08T13:05:37;9.30;1.00
4183;DHT22;2105;52.300;9.182;2023-04-08T13:08:06;9.40;1.00
4183;DHT22;2105;52.300;9.182;2023-04-08T13:10:32;9.50;1.00
4183;DHT22;2105;52.300;9.182;2023-04-08T13:12:59;9.50;99.90
4183;DHT22;2105;52.300;9.182;2023-04-08T13:15:26;9.50;1.00
4183;DHT22;2105;52.300;9.182;2023-04-08T13:17:52;9.50;1.00
4183;DHT22;2105;52.300;9.182;2023-04-08T13:20:19;9.60;1.00
4183;DHT22;2105;52.300;9.182;2023-04-08T13:22:50;9.60;99.90
4183;DHT22;2105;52.300;9.182;2023-04-08T13:25:18;9.60;99.90
4183;DHT22;2105;52.300;9.182;2023-04-08T13:27:44;9.50;99.90
4183;DHT22;2105;52.300;9.182;2023-04-08T13:30:12;9.50;99.90
4183;DHT22;2105;52.300;9.182;2023-04-08T13:32:39;9.50;99.90
4183;DHT22;2105;52.300;9.182;2023-04-08T13:35:06;9.50;99.90
4183;DHT22;2105;52.300;9.182;2023-04-08T13:37:33;9.60;99.90
4183;DHT22;2105;52.300;9.182;2023-04-08T13:39:59;9.60;1.00
4183;DHT22;2105;52.300;9.182;2023-04-08T13:42:28;9.50;1.00
4183;DHT22;2105;52.300;9.182;2023-04-08T13:44:55;9.30;1.00
4183;DHT22;2105;52.300;9.182;2023-04-08T13:47:22;9.30;99.90
4183;DHT22;2105;52.300;9.182;2023-04-08T13:49:49;9.30;1.00
4183;DHT22;2105;52.300;9.182;2023-04-08T13:52:16;9.30;83.30
4183;DHT22;2105;52.300;9.182;2023-04-08T13:54:42;9.20;99.90
4183;DHT22;2105;52.300;9.182;2023-04-08T13:57:09;9.30;99.90
4183;DHT22;2105;52.300;9.182;2023-04-08T13:59:37;9.30;99.90
4183;DHT22;2105;52.300;9.182;2023-04-08T14:02:04;9.30;99.90
4183;DHT22;2105;52.300;9.182;2023-04-08T14:04:31;9.40;1.00
4183;DHT22;2105;52.300;9.182;2023-04-08T14:06:57;9.40;99.90
4183;DHT22;2105;52.300;9.182;2023-04-08T14:09:25;9.50;1.00
4183;DHT22;2105;52.300;9.182;2023-04-08T14:11:51;9.40;1.00
4183;DHT22;2105;52.300;9.182;2023-04-08T14:14:18;9.40;1.00
4183;DHT22;2105;52.300;9.182;2023-04-08T14:16:46;9.40;1.00
4183;DHT22;2105;52.300;9.182;2023-04-08T14:19:14;9.50;1.00
4183;DHT22;2105;52.300;9.182;2023-04-08T14:21:40;9.50;99.90
4183;DHT22;2105;52.300;9.182;2023-04-08T14:24:07;9.60;92.50
4183;DHT22;2105;52.300;9.182;2023-04-08T14:26:34;9.50;1.00
4183;DHT22;2105;52.300;9.182;2023-04-08T14:29:02;9.50;99.90
4183;DHT22;2105;52.300;9.182;2023-04-08T14:31:29;9.60;99.90
4183;DHT22;2105;52.300;9.182;2023-04-08T14:33:57;9.60;1.00
4183;DHT22;2105;52.300;9.182;2023-04-08T14:36:24;9.60;99.90
4183;DHT22;2105;52.300;9.182;2023-04-08T14:38:51;9.70;99.90
4183;DHT22;2105;52.300;9.182;2023-04-08T14:41:17;9.70;1.00
4183;DHT22;2105;52.300;9.182;2023-04-08T14:43:46;9.70;1.00
4183;DHT22;2105;52.300;9.182;2023-04-08T14:46:12;9.70;1.00
4183;DHT22;2105;52.300;9.182;2023-04-08T14:48:40;9.70;1.00
4183;DHT22;2105;52.300;9.182;2023-04-08T14:51:08;9.90;99.90
4183;DHT22;2105;52.300;9.182;2023-04-08T14:53:35;9.90;1.00
4183;DHT22;2105;52.300;9.182;2023-04-08T14:56:02;9.90;1.00
4183;DHT22;2105;52.300;9.182;2023-04-08T14:58:29;9.90;1.00
4183;DHT22;2105;52.300;9.182;2023-04-08T15:00:56;9.80;99.90
4183;DHT22;2105;52.300;9.182;2023-04-08T15:03:23;9.80;1.00
4183;DHT22;2105;52.300;9.182;2023-04-08T15:05:49;9.90;99.90
4183;DHT22;2105;52.300;9.182;2023-04-08T15:08:17;9.80;1.00
4183;DHT22;2105;52.300;9.182;2023-04-08T15:10:44;9.70;1.00
4183;DHT22;2105;52.300;9.182;2023-04-08T15:13:11;9.60;99.90
4183;DHT22;2105;52.300;9.182;2023-04-08T15:15:38;9.70;22.30
4183;DHT22;2105;52.300;9.182;2023-04-08T15:18:04;9.70;1.00
4183;DHT22;2105;52.300;9.182;2023-04-08T15:20:31;9.70;1.00
4183;DHT22;2105;52.300;9.182;2023-04-08T15:22:58;9.70;1.00
4183;DHT22;2105;52.300;9.182;2023-04-08T15:25:26;9.70;1.00
4183;DHT22;2105;52.300;9.182;2023-04-08T15:27:53;9.80;99.90
4183;DHT22;2105;52.300;9.182;2023-04-08T15:30:20;9.80;99.90
4183;DHT22;2105;52.300;9.182;2023-04-08T15:32:49;9.70;99.90
4183;DHT22;2105;52.300;9.182;2023-04-08T15:35:16;9.50;99.90
4183;DHT22;2105;52.300;9.182;2023-04-08T15:37:43;9.40;99.90
4183;DHT22;2105;52.300;9.182;2023-04-08T15:40:10;9.30;1.00
4183;DHT22;2105;52.300;9.182;2023-04-08T15:42:38;9.40;99.90
4183;DHT22;2105;52.300;9.182;2023-04-08T15:45:06;9.50;99.90
4183;DHT22;2105;52.300;9.182;2023-04-08T15:47:32;9.50;1.00
4183;DHT22;2105;52.300;9.182;2023-04-08T15:49:59;9.40;99.90
4183;DHT22;2105;52.300;9.182;2023-04-08T15:52:26;9.40;99.90
4183;DHT22;2105;52.300;9.182;2023-04-08T15:54:53;9.40;99.90
4183;DHT22;2105;52.300;9.182;2023-04-08T15:57:20;9.40;99.90
4183;DHT22;2105;52.300;9.182;2023-04-08T15:59:52;9.50;99.90
4183;DHT22;2105;52.300;9.182;2023-04-08T16:02:19;9.50;1.00
4183;DHT22;2105;52.300;9.182;2023-04-08T16:04:46;9.50;1.00
4183;DHT22;2105;52.300;9.182;2023-04-08T16:07:12;9.40;1.00
4183;DHT22;2105;52.300;9.182;2023-04-08T16:09:39;9.30;99.90
4183;DHT22;2105;52.300;9.182;2023-04-08T16:12:06;9.30;99.90
4183;DHT22;2105;52.300;9.182;2023-04-08T16:14:32;9.20;99.90
4183;DHT22;2105;52.300;9.182;2023-04-08T16:17:01;9.10;1.00
4183;DHT22;2105;52.300;9.182;2023-04-08T16:19:28;9.20;1.00
4183;DHT22;2105;52.300;9.182;2023-04-08T16:21:54;9.10;99.90
4183;DHT22;2105;52.300;9.182;2023-04-08T16:24:21;9.10;1.00
4183;DHT22;2105;52.300;9.182;2023-04-08T16:26:48;9.10;99.90
4183;DHT22;2105;52.300;9.182;2023-04-08T16:29:15;9.00;99.90
4183;DHT22;2105;52.300;9.182;2023-04-08T16:31:41;8.90;1.00
4183;DHT22;2105;52.300;9.182;2023-04-08T16:34:09;8.80;1.00